Time;durP1;ratioP1;P1;durP2;ratioP2;P2;SDS_P1;SDS_P2;PMS_P1;PMS_P2;Temp;Humidity;BMP_temperature;BMP_pressure;BME280_temperature;BME280_humidity;BME280_pressure;Samples;Min_cycle;Max_cycle;Signal;HPM_P1;HPM_P2
2022/08/24 00:01:11;;;;;;;66.05;59.15;;;20.20;99.90;;;;;;7393516;19;20487;-80
2022/08/24 00:03:39;;;;;;;70.18;63.10;;;20.20;99.90;;;;;;7393319;19;20084;-80
2022/08/24 00:06:08;;;;;;;67.40;60.83;;;20.20;99.90;;;;;;7393638;19;20351;-80
2022/08/24 00:08:35;;;;;;;70.82;63.78;;;20.10;99.90;;;;;;7392507;19;20006;-80
2022/08/24 00:11:02;;;;;;;68.60;61.90;;;20.20;99.90;;;;;;7391988;19;20018;-80
2022/08/24 00:13:28;;;;;;;70.50;63.30;;;20.10;99.90;;;;;;7390723;19;20111;-80
2022/08/24 00:15:54;;;;;;;76.35;68.88;;;20.00;99.90;;;;;;7392892;19;20066;-80
2022/08/24 00:18:21;;;;;;;69.10;62.15;;;20.00;99.90;;;;;;7392750;19;20106;-80
2022/08/24 00:20:47;;;;;;;67.32;60.63;;;20.00;99.90;;;;;;7392811;19;20013;-80
2022/08/24 00:23:13;;;;;;;69.40;62.83;;;20.00;99.90;;;;;;7389835;19;20047;-80
2022/08/24 00:25:39;;;;;;;70.78;63.80;;;20.00;99.90;;;;;;7391721;19;20010;-80
2022/08/24 00:28:06;;;;;;;76.60;68.88;;;20.00;99.90;;;;;;7390728;19;20002;-80
2022/08/24 00:30:33;;;;;;;74.07;66.85;;;19.90;99.90;;;;;;7393417;19;20360;-80
2022/08/24 00:33:00;;;;;;;79.25;71.38;;;19.80;99.90;;;;;;7392680;19;20090;-80
2022/08/24 00:35:26;;;;;;;81.63;73.65;;;19.80;99.90;;;;;;7393332;19;20023;-80
2022/08/24 00:37:53;;;;;;;73.90;66.35;;;19.80;99.90;;;;;;7393614;19;20014;-80
2022/08/24 00:40:22;;;;;;;82.00;73.68;;;19.80;99.90;;;;;;7392666;19;20015;-80
2022/08/24 00:42:49;;;;;;;84.72;76.15;;;19.70;99.90;;;;;;7391632;19;20018;-80
2022/08/24 00:45:16;;;;;;;85.88;76.90;;;19.60;99.90;;;;;;7390870;19;20487;-80
2022/08/24 00:47:55;;;;;;;82.93;74.53;;;19.60;99.90;;;;;;7392203;19;20534;-80
2022/08/24 00:50:31;;;;;;;80.45;72.38;;;19.60;99.90;;;;;;7392449;19;20011;-80
2022/08/24 00:53:01;;;;;;;82.05;73.75;;;19.60;99.90;;;;;;7392168;19;20034;-80
2022/08/24 00:55:35;;;;;;;82.88;74.45;;;19.60;99.90;;;;;;7392803;19;20018;-80
2022/08/24 00:58:06;;;;;;;82.28;73.70;;;19.50;99.90;;;;;;7392098;19;20355;-80
2022/08/24 01:00:40;;;;;;;83.28;74.80;;;19.50;99.90;;;;;;7392076;19;20027;-80
2022/08/24 01:03:07;;;;;;;80.35;72.47;;;19.40;99.90;;;;;;7389968;19;20078;-80
2022/08/24 01:05:36;;;;;;;74.03;66.72;;;19.40;99.90;;;;;;7392327;19;20018;-80
2022/08/24 01:08:04;;;;;;;76.68;68.85;;;19.40;99.90;;;;;;7391629;19;20024;-80
2022/08/24 01:10:34;;;;;;;81.85;73.43;;;19.50;99.90;;;;;;7390340;19;20015;-80
2022/08/24 01:13:04;;;;;;;84.65;76.05;;;19.50;99.90;;;;;;7392087;19;20027;-80
2022/08/24 01:15:34;;;;;;;77.07;69.65;;;19.40;99.90;;;;;;7392053;19;20014;-80
2022/08/24 01:20:54;;;;;;;82.53;74.13;;;19.50;99.90;;;;;;7391099;19;20011;-80
2022/08/24 01:23:38;;;;;;;80.30;72.00;;;19.40;99.90;;;;;;7389333;19;20033;-80
2022/08/24 01:26:06;;;;;;;60.72;54.83;;;19.30;99.90;;;;;;7394592;19;20007;-80
2022/08/24 01:28:33;;;;;;;75.95;68.50;;;19.30;99.90;;;;;;7398821;19;20037;-80
2022/08/24 01:30:59;;;;;;;77.93;70.43;;;19.40;99.90;;;;;;7398732;19;20513;-80
2022/08/24 01:33:30;;;;;;;82.05;74.13;;;19.40;99.90;;;;;;7398244;19;20063;-80
2022/08/24 01:36:08;;;;;;;83.90;75.22;;;19.30;99.90;;;;;;7398685;19;20019;-80
2022/08/24 01:38:34;;;;;;;86.95;77.95;;;19.30;99.90;;;;;;7398342;19;20010;-80
2022/08/24 01:41:02;;;;;;;86.85;78.05;;;19.10;99.90;;;;;;7398700;19;20010;-80
2022/08/24 01:43:28;;;;;;;92.15;82.45;;;19.10;99.90;;;;;;7393980;19;20087;-80
2022/08/24 01:45:54;;;;;;;86.53;77.60;;;19.00;99.90;;;;;;7396630;19;20387;-80
2022/08/24 01:48:20;;;;;;;86.40;77.50;;;19.00;99.90;;;;;;7396497;19;20114;-80
2022/08/24 01:50:46;;;;;;;88.15;79.22;;;19.00;99.90;;;;;;7396154;19;20078;-80
2022/08/24 01:53:12;;;;;;;92.10;82.55;;;18.90;99.90;;;;;;7398024;19;20022;-80
2022/08/24 01:55:40;;;;;;;97.03;87.00;;;18.80;99.90;;;;;;7397834;19;20040;-80
2022/08/24 01:58:06;;;;;;;84.10;75.68;;;18.80;99.90;;;;;;7397774;19;20030;-80
2022/08/24 02:00:35;;;;;;;94.50;84.70;;;18.80;99.90;;;;;;7397712;19;20073;-80
2022/08/24 02:03:02;;;;;;;91.38;81.68;;;18.80;99.90;;;;;;7396143;19;20082;-80
2022/08/24 02:05:28;;;;;;;89.45;80.13;;;18.70;99.90;;;;;;7396265;19;20025;-80
2022/08/24 02:07:56;;;;;;;84.88;76.28;;;18.70;99.90;;;;;;7397411;19;20015;-80
2022/08/24 02:10:23;;;;;;;96.55;86.07;;;18.70;99.90;;;;;;7397789;19;20027;-80
2022/08/24 02:12:56;;;;;;;96.85;86.25;;;18.70;99.90;;;;;;7397165;19;20022;-80
2022/08/24 02:15:30;;;;;;;97.78;87.20;;;18.70;99.90;;;;;;7397122;19;20479;-80
2022/08/24 02:17:56;;;;;;;84.30;75.95;;;18.70;99.90;;;;;;7394917;19;20014;-80
2022/08/24 02:20:23;;;;;;;76.82;68.78;;;18.60;99.90;;;;;;7396553;19;20022;-80
2022/08/24 02:22:50;;;;;;;73.05;65.43;;;18.60;99.90;;;;;;7393615;19;20015;-81
2022/08/24 02:25:16;;;;;;;74.55;66.70;;;18.60;99.90;;;;;;7396564;19;20018;-80
2022/08/24 02:27:42;;;;;;;75.43;67.82;;;18.50;99.90;;;;;;7395991;19;20011;-81
2022/08/24 02:30:09;;;;;;;71.25;64.07;;;18.50;99.90;;;;;;7396978;19;20344;-80
2022/08/24 02:32:35;;;;;;;68.20;61.03;;;18.40;99.90;;;;;;7396618;19;20339;-80
2022/08/24 02:35:00;;;;;;;65.75;59.13;;;18.30;99.90;;;;;;7396460;19;20524;-80
2022/08/24 02:37:26;;;;;;;63.47;57.28;;;18.30;99.90;;;;;;7395402;19;20017;-81
2022/08/24 02:39:52;;;;;;;59.20;53.55;;;18.30;99.90;;;;;;7396126;19;20018;-81
2022/08/24 02:42:18;;;;;;;62.35;56.47;;;18.30;99.90;;;;;;7393438;19;20053;-80
2022/08/24 02:44:44;;;;;;;70.15;63.22;;;18.40;99.90;;;;;;7396498;19;20490;-81
2022/08/24 02:47:10;;;;;;;72.47;65.20;;;18.50;99.90;;;;;;7396195;19;20022;-80
2022/08/24 02:49:36;;;;;;;69.85;62.95;;;18.40;99.90;;;;;;7394045;19;20015;-80
2022/08/24 02:52:02;;;;;;;73.15;65.53;;;18.40;99.90;;;;;;7396680;19;20035;-80
2022/08/24 02:54:28;;;;;;;75.32;67.82;;;18.30;99.90;;;;;;7394191;19;20017;-81
2022/08/24 02:56:54;;;;;;;71.22;63.80;;;18.30;99.90;;;;;;7395790;19;20015;-80
2022/08/24 02:59:23;;;;;;;71.63;64.63;;;18.20;99.90;;;;;;7396217;19;20034;-80
2022/08/24 03:01:49;;;;;;;68.55;61.70;;;18.20;99.90;;;;;;7395199;19;20014;-80
2022/08/24 03:04:16;;;;;;;71.40;64.32;;;18.20;99.90;;;;;;7395982;19;20014;-80
2022/08/24 03:06:42;;;;;;;70.20;63.10;;;18.20;99.90;;;;;;7395362;19;20014;-80
2022/08/24 03:09:12;;;;;;;79.68;71.35;;;18.20;99.90;;;;;;7395214;19;20017;-80
2022/08/24 03:11:39;;;;;;;78.82;70.75;;;18.20;99.90;;;;;;7395740;19;20027;-81
2022/08/24 03:14:07;;;;;;;70.35;63.42;;;18.20;99.90;;;;;;7395408;19;20019;-80
2022/08/24 03:16:35;;;;;;;75.35;67.75;;;18.20;99.90;;;;;;7394453;19;20018;-80
2022/08/24 03:19:01;;;;;;;78.88;70.57;;;18.20;99.90;;;;;;7395003;19;20372;-81
2022/08/24 03:21:27;;;;;;;79.20;70.95;;;18.20;99.90;;;;;;7392630;19;20046;-81
2022/08/24 03:23:53;;;;;;;79.50;71.22;;;18.20;99.90;;;;;;7393364;19;20522;-81
2022/08/24 03:26:19;;;;;;;88.80;79.18;;;18.20;99.90;;;;;;7393202;19;20106;-81
2022/08/24 03:28:45;;;;;;;85.55;76.40;;;18.20;99.90;;;;;;7391495;19;20431;-80
2022/08/24 03:31:12;;;;;;;94.30;82.07;;;18.10;99.90;;;;;;7393152;19;20010;-81
2022/08/24 03:33:38;;;;;;;80.53;72.18;;;18.10;99.90;;;;;;7393360;19;20018;-80
2022/08/24 03:36:04;;;;;;;82.95;74.18;;;18.20;99.90;;;;;;7394284;19;20021;-80
2022/08/24 03:38:30;;;;;;;82.13;73.50;;;18.20;99.90;;;;;;7394392;19;20007;-81
2022/08/24 03:40:56;;;;;;;83.35;74.50;;;18.20;99.90;;;;;;7394629;19;20011;-81
2022/08/24 03:46:09;;;;;;;90.88;79.68;;;18.20;99.90;;;;;;7394166;19;20017;-80
2022/08/24 03:48:35;;;;;;;91.85;82.13;;;18.30;99.90;;;;;;7392201;19;20011;-81
2022/08/24 03:51:01;;;;;;;89.35;79.90;;;18.30;99.90;;;;;;7392023;19;20014;-81
2022/08/24 03:53:27;;;;;;;90.85;81.32;;;18.30;99.90;;;;;;7392775;19;20092;-80
2022/08/24 03:55:53;;;;;;;85.07;75.97;;;18.20;99.90;;;;;;7392564;19;20010;-81
2022/08/24 03:58:19;;;;;;;87.82;77.95;;;18.20;99.90;;;;;;7392344;19;20011;-81
2022/08/24 04:00:45;;;;;;;98.60;87.85;;;18.10;99.90;;;;;;7393525;19;20780;-80
2022/08/24 04:03:13;;;;;;;83.07;74.38;;;18.10;99.90;;;;;;7390459;19;20074;-81
2022/08/24 04:05:39;;;;;;;93.88;83.53;;;18.10;99.90;;;;;;7393310;19;20010;-80
2022/08/24 04:08:05;;;;;;;89.28;79.57;;;18.10;99.90;;;;;;7393844;19;20130;-81
2022/08/24 04:10:32;;;;;;;87.18;77.97;;;18.10;99.90;;;;;;7393613;19;20010;-81
2022/08/24 04:13:00;;;;;;;90.18;80.55;;;18.00;99.90;;;;;;7393121;19;20010;-81
2022/08/24 04:15:27;;;;;;;87.57;78.30;;;18.00;99.90;;;;;;7393152;19;20374;-81
2022/08/24 04:17:53;;;;;;;80.97;72.32;;;18.00;99.90;;;;;;7391651;19;20108;-81
2022/08/24 04:20:19;;;;;;;76.53;68.43;;;18.00;99.90;;;;;;7393073;19;20409;-81
2022/08/24 04:22:50;;;;;;;83.03;74.28;;;17.90;99.90;;;;;;7392210;19;20034;-81
2022/08/24 04:25:16;;;;;;;75.13;67.43;;;17.90;99.90;;;;;;7392917;19;20018;-81
2022/08/24 04:27:41;;;;;;;75.50;67.93;;;17.80;99.90;;;;;;7394491;19;20021;-80
2022/08/24 04:30:08;;;;;;;73.22;65.57;;;17.80;99.90;;;;;;7392856;19;20018;-80
2022/08/24 04:32:34;;;;;;;77.50;69.43;;;17.80;99.90;;;;;;7392775;19;20015;-81
2022/08/24 04:35:00;;;;;;;71.95;64.55;;;17.80;99.90;;;;;;7393151;19;20031;-81
2022/08/24 04:37:26;;;;;;;69.75;62.53;;;17.70;99.90;;;;;;7390971;19;20484;-80
2022/08/24 04:39:52;;;;;;;74.32;66.75;;;17.70;99.90;;;;;;7391157;19;20022;-80
2022/08/24 04:42:18;;;;;;;79.03;70.70;;;17.60;99.90;;;;;;7391650;19;20025;-80
2022/08/24 04:44:44;;;;;;;73.55;66.03;;;17.60;99.90;;;;;;7393050;19;20002;-81
2022/08/24 04:47:10;;;;;;;72.50;65.38;;;17.60;99.90;;;;;;7392871;19;20014;-81
2022/08/24 04:49:37;;;;;;;74.38;66.68;;;17.50;99.90;;;;;;7391556;19;20062;-81
2022/08/24 04:52:04;;;;;;;68.13;61.08;;;17.50;99.90;;;;;;7390823;19;20342;-81
2022/08/24 04:54:31;;;;;;;67.00;60.40;;;17.50;99.90;;;;;;7390465;19;20041;-81
2022/08/24 04:56:57;;;;;;;65.60;59.50;;;17.40;99.90;;;;;;7390501;19;20483;-80
2022/08/24 04:59:23;;;;;;;66.93;60.20;;;17.40;99.90;;;;;;7391305;19;20015;-81
2022/08/24 05:01:49;;;;;;;66.32;59.67;;;17.30;99.90;;;;;;7399303;19;20053;-81
2022/08/24 05:04:15;;;;;;;65.28;59.05;;;17.30;99.90;;;;;;7399348;19;20399;-80
2022/08/24 05:06:41;;;;;;;72.22;65.47;;;17.30;99.90;;;;;;7399392;19;20014;-81
2022/08/24 05:09:07;;;;;;;68.15;61.83;;;17.30;99.90;;;;;;7397599;19;20007;-80
2022/08/24 05:11:36;;;;;;;72.15;65.35;;;17.30;99.90;;;;;;7399268;19;20018;-80
2022/08/24 05:14:02;;;;;;;69.20;62.05;;;17.30;99.90;;;;;;7398889;19;20006;-81
2022/08/24 05:16:28;;;;;;;75.22;67.75;;;17.30;99.90;;;;;;7397977;19;20026;-81
2022/08/24 05:18:56;;;;;;;76.68;69.15;;;17.30;99.90;;;;;;7399293;19;20018;-81
2022/08/24 05:21:23;;;;;;;80.57;72.57;;;17.40;99.90;;;;;;7398371;19;20042;-81
2022/08/24 05:23:49;;;;;;;78.65;70.60;;;17.40;99.90;;;;;;7397459;19;20351;-81
2022/08/24 05:26:21;;;;;;;74.35;67.22;;;17.40;99.90;;;;;;7400388;19;20510;-81
2022/08/24 05:28:47;;;;;;;;;;;17.30;99.90;;;;;;7397420;19;20018;-81
2022/08/24 05:31:25;;;;;;;69.10;62.75;;;17.40;99.90;;;;;;7398749;19;20350;-81
2022/08/24 05:33:51;;;;;;;73.32;66.55;;;17.40;99.90;;;;;;7399432;19;20010;-80
2022/08/24 05:36:24;;;;;;;73.00;66.07;;;17.40;99.90;;;;;;7399236;19;20007;-80
2022/08/24 05:38:53;;;;;;;74.13;67.18;;;17.50;99.90;;;;;;7398561;19;20014;-81
2022/08/24 05:41:19;;;;;;;77.68;70.25;;;17.50;99.90;;;;;;7398220;19;20018;-81
2022/08/24 05:43:46;;;;;;;83.03;74.70;;;17.50;99.90;;;;;;7398275;19;20017;-81
2022/08/24 05:46:13;;;;;;;88.65;79.78;;;17.50;99.90;;;;;;7398642;19;20014;-81
2022/08/24 05:48:39;;;;;;;83.72;75.22;;;17.60;99.90;;;;;;7398409;19;20452;-81
2022/08/24 05:51:06;;;;;;;90.15;80.80;;;17.60;99.90;;;;;;7397590;19;20011;-80
2022/08/24 05:53:32;;;;;;;90.68;81.60;;;17.70;99.90;;;;;;7397604;19;20015;-80
2022/08/24 05:56:03;;;;;;;85.70;76.82;;;17.70;99.90;;;;;;7396699;19;20475;-80
2022/08/24 05:58:28;;;;;;;84.28;75.65;;;17.80;99.90;;;;;;7398228;19;20038;-81
2022/08/24 06:00:54;;;;;;;82.18;73.88;;;18.00;99.90;;;;;;7396077;19;20519;-80
2022/08/24 06:03:20;;;;;;;86.00;77.28;;;18.10;99.90;;;;;;7394183;19;20037;-81
2022/08/24 06:05:47;;;;;;;82.25;74.13;;;18.10;99.90;;;;;;7395903;19;20018;-81
2022/08/24 06:08:13;;;;;;;82.72;74.57;;;18.10;99.90;;;;;;7396106;19;20082;-81
2022/08/24 06:10:42;;;;;;;80.00;72.05;;;18.20;99.90;;;;;;7397549;19;20019;-80
2022/08/24 06:13:09;;;;;;;76.60;69.00;;;18.20;99.90;;;;;;7396102;19;20021;-80
2022/08/24 06:15:37;;;;;;;76.20;68.60;;;18.20;99.90;;;;;;7396150;19;20039;-80
2022/08/24 06:18:04;;;;;;;84.80;76.28;;;18.30;99.90;;;;;;7397114;19;20010;-81
2022/08/24 06:20:33;;;;;;;85.10;76.43;;;18.30;99.90;;;;;;7396457;19;20019;-80
2022/08/24 06:22:59;;;;;;;86.75;78.00;;;18.30;99.90;;;;;;7394957;19;20031;-80
2022/08/24 06:28:09;;;;;;;86.68;77.93;;;18.40;99.90;;;;;;7393977;19;20010;-80
2022/08/24 06:30:35;;;;;;;86.70;78.07;;;18.50;99.90;;;;;;7396544;19;20021;-80
2022/08/24 06:33:03;;;;;;;86.78;78.28;;;18.60;99.90;;;;;;7395156;19;20037;-80
2022/08/24 06:35:29;;;;;;;87.15;78.43;;;18.70;99.90;;;;;;7395381;19;20026;-80
2022/08/24 06:37:55;;;;;;;87.65;78.68;;;18.70;99.90;;;;;;7394868;19;20360;-80
2022/08/24 06:40:21;;;;;;;89.03;80.15;;;18.80;99.90;;;;;;7394860;19;20021;-81
2022/08/24 06:42:47;;;;;;;87.68;78.78;;;18.90;99.90;;;;;;7395447;19;20011;-80
2022/08/24 06:45:13;;;;;;;89.75;80.65;;;19.00;99.90;;;;;;7394571;19;20467;-81
2022/08/24 06:47:40;;;;;;;88.47;79.50;;;19.10;99.90;;;;;;7395875;19;20479;-80
2022/08/24 06:50:07;;;;;;;90.72;81.75;;;19.20;99.90;;;;;;7394876;19;20078;-80
2022/08/24 06:52:38;;;;;;;90.32;81.22;;;19.30;99.90;;;;;;7394639;19;20006;-80
2022/08/24 06:55:05;;;;;;;92.03;82.45;;;19.40;99.90;;;;;;7394136;19;20345;-80
2022/08/24 06:57:31;;;;;;;91.13;81.57;;;19.50;99.90;;;;;;7394042;19;20078;-81
2022/08/24 06:59:57;;;;;;;94.10;84.25;;;19.70;99.90;;;;;;7394142;19;20084;-80
2022/08/24 07:02:23;;;;;;;91.03;81.97;;;19.70;99.90;;;;;;7393360;19;20023;-80
2022/08/24 07:04:49;;;;;;;95.57;85.43;;;19.80;99.90;;;;;;7395240;19;20010;-81
2022/08/24 07:07:15;;;;;;;94.22;84.63;;;19.90;99.90;;;;;;7395483;19;20007;-81
2022/08/24 07:09:41;;;;;;;93.38;84.15;;;20.10;99.90;;;;;;7395340;19;20021;-80
2022/08/24 07:12:10;;;;;;;87.70;78.65;;;20.60;99.90;;;;;;7395058;19;20026;-80
2022/08/24 07:14:36;;;;;;;86.13;77.18;;;21.70;99.90;;;;;;7393663;19;20094;-80
2022/08/24 07:17:01;;;;;;;66.07;59.47;;;22.30;99.90;;;;;;7393698;19;20011;-80
2022/08/24 07:19:27;;;;;;;18.95;17.23;;;22.30;99.90;;;;;;7394627;19;20010;-80
2022/08/24 07:21:58;;;;;;;36.78;33.30;;;22.30;99.90;;;;;;7392898;19;20015;-80
2022/08/24 07:24:24;;;;;;;83.45;75.00;;;22.80;99.90;;;;;;7395011;19;20021;-80
2022/08/24 07:26:53;;;;;;;84.50;76.05;;;23.50;99.90;;;;;;7394803;19;20021;-80
2022/08/24 07:29:19;;;;;;;76.45;68.80;;;24.50;99.90;;;;;;7394956;19;20018;-80
2022/08/24 07:31:45;;;;;;;75.28;67.78;;;25.40;99.90;;;;;;7393100;19;20007;-80
2022/08/24 07:34:14;;;;;;;51.78;46.55;;;25.90;99.90;;;;;;7394453;19;20010;-80
2022/08/24 07:36:40;;;;;;;32.33;29.10;;;26.50;99.90;;;;;;7392993;19;20475;-80
2022/08/24 07:39:07;;;;;;;48.50;43.85;;;27.20;99.90;;;;;;7394991;19;20467;-80
2022/08/24 07:41:38;;;;;;;41.95;37.58;;;27.60;99.90;;;;;;7392313;19;20018;-80
2022/08/24 07:44:04;;;;;;;63.05;56.58;;;28.00;99.90;;;;;;7394215;19;20096;-80
2022/08/24 07:46:31;;;;;;;65.05;58.72;;;28.20;99.90;;;;;;7393893;19;20706;-80
2022/08/24 07:48:57;;;;;;;53.13;47.97;;;28.60;99.90;;;;;;7394712;19;20041;-80
2022/08/24 07:51:23;;;;;;;62.53;55.85;;;28.80;99.90;;;;;;7393664;19;20511;-80
2022/08/24 07:53:49;;;;;;;21.20;19.20;;;28.80;99.90;;;;;;7392140;19;20349;-80
2022/08/24 07:56:15;;;;;;;35.47;31.90;;;28.60;99.90;;;;;;7392304;19;20018;-80
2022/08/24 07:58:41;;;;;;;33.38;30.13;;;28.70;99.90;;;;;;7392389;19;20015;-80
2022/08/24 08:01:08;;;;;;;43.75;39.30;;;29.00;99.90;;;;;;7393911;19;20484;-80
2022/08/24 08:03:35;;;;;;;35.83;32.17;;;29.30;99.90;;;;;;7390399;19;20098;-80
2022/08/24 08:06:04;;;;;;;36.42;32.95;;;29.10;99.90;;;;;;7393452;19;20015;-80
2022/08/24 08:08:33;;;;;;;38.47;34.50;;;29.00;99.90;;;;;;7394024;19;20010;-80
2022/08/24 08:11:01;;;;;;;46.50;41.88;;;29.20;99.90;;;;;;7391965;19;20475;-80
2022/08/24 08:13:28;;;;;;;47.72;43.03;;;29.10;99.90;;;;;;7393338;19;20027;-80
2022/08/24 08:15:55;;;;;;;49.10;44.28;;;29.10;99.90;;;;;;7391443;19;20408;-80
2022/08/24 08:18:22;;;;;;;46.55;41.88;;;28.80;99.90;;;;;;7391666;19;20015;-80
2022/08/24 08:20:48;;;;;;;42.58;38.50;;;29.00;99.90;;;;;;7393488;19;20018;-81
2022/08/24 08:26:01;;;;;;;21.80;19.70;;;29.10;99.90;;;;;;7394847;19;20018;-80
2022/08/24 08:28:31;;;;;;;12.13;11.07;;;29.00;99.90;;;;;;7390452;19;20010;-80
2022/08/24 08:31:02;;;;;;;41.17;37.20;;;28.60;99.90;;;;;;7393300;19;20014;-81
2022/08/24 08:33:28;;;;;;;35.42;32.17;;;28.00;99.90;;;;;;7391525;19;20014;-81
2022/08/24 08:36:21;;;;;;;36.50;32.78;;;27.40;99.90;;;;;;7390470;19;20495;-80
2022/08/24 08:38:47;;;;;;;;;;;26.90;99.90;;;;;;7392245;19;20028;-81
2022/08/24 08:41:45;;;;;;;27.40;24.50;;;26.60;99.90;;;;;;7391511;19;20348;-80
2022/08/24 08:44:24;;;;;;;26.60;23.90;;;26.40;99.90;;;;;;7392843;19;20431;-80
2022/08/24 08:47:15;;;;;;;24.60;22.10;;;26.40;99.90;;;;;;7392647;19;20506;-79
2022/08/24 08:50:17;;;;;;;21.55;19.33;;;26.20;99.90;;;;;;7390366;19;20014;-79
2022/08/24 08:53:24;;;;;;;21.48;19.38;;;26.20;99.90;;;;;;7390817;19;20579;-79
2022/08/24 08:56:33;;;;;;;24.10;21.77;;;26.30;99.90;;;;;;7389890;19;20018;-79
2022/08/24 08:59:41;;;;;;;24.35;21.88;;;26.30;99.90;;;;;;7392790;19;20017;-80
2022/08/24 09:02:19;;;;;;;18.35;16.48;;;26.30;99.90;;;;;;7392015;19;20015;-80
2022/08/24 09:05:14;;;;;;;20.50;18.02;;;26.30;99.90;;;;;;7392150;19;20013;-80
2022/08/24 09:08:24;;;;;;;19.77;17.77;;;26.30;99.90;;;;;;7390796;19;20014;-80
2022/08/24 09:11:06;;;;;;;19.20;16.50;;;26.40;99.90;;;;;;7392123;19;20020;-80
2022/08/24 09:13:52;;;;;;;21.17;18.92;;;26.40;99.90;;;;;;7392169;19;20498;-80
2022/08/24 09:16:42;;;;;;;20.45;18.40;;;26.50;99.90;;;;;;7391568;19;20017;-80
2022/08/24 09:19:23;;;;;;;8.30;7.22;;;26.60;99.90;;;;;;7391946;19;20094;-80
2022/08/24 09:22:04;;;;;;;9.93;8.93;;;26.60;99.90;;;;;;7391513;19;20020;-79
2022/08/24 09:24:49;;;;;;;11.23;9.30;;;26.70;99.90;;;;;;7393627;19;20062;-79
2022/08/24 09:27:36;;;;;;;11.32;9.95;;;26.80;99.90;;;;;;7391308;19;20085;-79
2022/08/24 09:30:21;;;;;;;8.20;7.43;;;26.80;99.90;;;;;;7391791;19;20007;-79
2022/08/24 09:33:04;;;;;;;16.13;13.52;;;26.90;99.90;;;;;;7392167;19;20017;-79
2022/08/24 09:35:38;;;;;;;19.80;14.52;;;27.10;99.90;;;;;;7391358;19;20033;-79
2022/08/24 09:38:30;;;;;;;13.05;11.48;;;27.10;99.90;;;;;;7389772;19;20011;-79
2022/08/24 09:41:11;;;;;;;13.90;12.50;;;27.20;99.90;;;;;;7391440;19;20027;-80
2022/08/24 09:43:57;;;;;;;13.55;12.07;;;27.20;99.90;;;;;;7389160;19;20022;-79
2022/08/24 09:46:44;;;;;;;7.88;7.18;;;27.30;99.90;;;;;;7392548;19;20650;-79
2022/08/24 09:49:42;;;;;;;12.70;11.10;;;27.50;99.90;;;;;;7397969;19;20434;-79
2022/08/24 09:52:46;;;;;;;15.48;13.15;;;27.60;99.90;;;;;;7398223;19;20015;-79
2022/08/24 09:55:32;;;;;;;14.80;12.10;;;27.70;99.90;;;;;;7398138;19;20022;-80
2022/08/24 09:58:09;;;;;;;8.80;7.93;;;27.70;99.90;;;;;;7398527;19;20031;-80
2022/08/24 10:00:44;;;;;;;13.82;9.85;;;27.80;99.90;;;;;;7397405;19;20326;-79
2022/08/24 10:03:21;;;;;;;13.60;11.95;;;27.90;99.90;;;;;;7396359;19;20023;-79
2022/08/24 10:06:03;;;;;;;7.85;6.95;;;27.70;99.90;;;;;;7396472;19;20018;-79
2022/08/24 10:08:56;;;;;;;6.30;5.70;;;27.70;99.90;;;;;;7398002;19;20089;-79
2022/08/24 10:11:59;;;;;;;5.40;3.80;;;27.90;99.90;;;;;;7396607;19;20011;-80
2022/08/24 10:14:40;;;;;;;7.43;5.95;;;28.00;99.90;;;;;;7397708;19;20013;-80
2022/08/24 10:17:21;;;;;;;8.65;5.70;;;28.00;99.90;;;;;;7396471;19;20076;-79
2022/08/24 10:20:02;;;;;;;6.38;4.13;;;28.10;99.90;;;;;;7395565;19;20025;-80
2022/08/24 10:23:07;;;;;;;8.80;6.15;;;28.10;99.90;;;;;;7395035;19;20475;-80
2022/08/24 10:25:45;;;;;;;5.25;3.50;;;28.10;99.90;;;;;;7395828;19;20413;-80
2022/08/24 10:28:17;;;;;;;9.25;5.75;;;28.20;99.90;;;;;;7395772;19;20014;-80
2022/08/24 10:31:00;;;;;;;3.63;3.33;;;28.30;99.90;;;;;;7397215;19;20514;-80
2022/08/24 10:33:28;;;;;;;;;;;28.40;99.90;;;;;;7397994;19;20010;-81
2022/08/24 10:36:25;;;;;;;6.50;4.90;;;28.40;99.90;;;;;;7397354;19;19978;-80
2022/08/24 10:43:32;;;;;;;5.03;3.33;;;28.20;99.90;;;;;;7396445;19;20380;-80
2022/08/24 10:45:41;;;;;;;6.00;5.30;;;28.30;99.90;;;;;;7394513;19;20010;-80
2022/08/24 10:48:26;;;;;;;5.97;4.50;;;28.30;99.90;;;;;;7396372;19;20018;-80
2022/08/24 10:51:13;;;;;;;4.85;4.35;;;28.30;99.90;;;;;;7396058;19;20398;-80
2022/08/24 10:53:39;;;;;;;4.28;3.88;;;28.40;99.90;;;;;;7396058;19;20011;-80
2022/08/24 10:56:39;;;;;;;11.30;8.35;;;28.40;99.90;;;;;;7394468;19;20011;-80
2022/08/24 10:59:11;;;;;;;13.13;7.07;;;28.50;99.90;;;;;;7395637;19;20019;-80
2022/08/24 11:01:38;;;;;;;;;;;28.60;99.90;;;;;;7396675;19;20364;-81
2022/08/24 11:04:10;;;;;;;9.82;8.75;;;28.60;99.90;;;;;;7395951;19;19923;-80
2022/08/24 11:06:40;;;;;;;11.30;9.32;;;28.50;99.90;;;;;;7395584;19;20018;-80
2022/08/24 11:09:13;;;;;;;11.55;9.43;;;28.60;99.90;;;;;;7395422;19;20034;-80
2022/08/24 11:11:47;;;;;;;5.50;4.72;;;28.70;99.90;;;;;;7394152;19;20014;-80
2022/08/24 11:14:23;;;;;;;7.70;6.28;;;28.80;99.90;;;;;;7396087;19;20031;-80
2022/08/24 11:16:50;;;;;;;6.03;3.25;;;28.90;99.90;;;;;;7394656;19;20010;-80
2022/08/24 11:19:24;;;;;;;3.33;2.80;;;28.90;99.90;;;;;;7395115;19;20011;-80
2022/08/24 11:21:54;;;;;;;5.00;3.00;;;28.90;99.90;;;;;;7395127;19;20596;-80
2022/08/24 11:24:27;;;;;;;5.80;4.05;;;29.00;99.90;;;;;;7395239;19;20014;-80
2022/08/24 11:27:00;;;;;;;7.80;5.07;;;28.90;99.90;;;;;;7395092;19;20348;-80
2022/08/24 11:29:30;;;;;;;9.20;5.75;;;28.90;99.90;;;;;;7393449;19;20367;-80
2022/08/24 11:31:57;;;;;;;6.18;3.42;;;28.90;99.90;;;;;;7395142;19;20010;-80
2022/08/24 11:34:34;;;;;;;4.43;3.90;;;29.00;99.90;;;;;;7395267;19;20498;-80
2022/08/24 11:37:00;;;;;;;7.57;5.07;;;29.10;99.90;;;;;;7393814;19;20030;-80
2022/08/24 11:39:34;;;;;;;3.83;3.08;;;29.00;99.90;;;;;;7394450;19;20021;-80
2022/08/24 11:42:21;;;;;;;7.55;6.85;;;29.00;99.90;;;;;;7394359;19;20021;-80
2022/08/24 11:45:11;;;;;;;9.15;6.10;;;29.00;99.90;;;;;;7394432;19;20018;-80
2022/08/24 11:48:15;;;;;;;7.25;4.72;;;29.10;99.90;;;;;;7394401;19;20048;-80
2022/08/24 11:50:59;;;;;;;10.57;8.20;;;29.10;99.90;;;;;;7393632;19;20010;-80
2022/08/24 11:54:08;;;;;;;10.05;6.70;;;29.10;99.90;;;;;;7393052;19;20018;-80
2022/08/24 11:56:45;;;;;;;8.82;6.03;;;29.10;99.90;;;;;;7393094;19;20015;-80
2022/08/24 11:59:22;;;;;;;4.60;4.03;;;29.20;99.90;;;;;;7394742;19;20022;-80
2022/08/24 12:02:07;;;;;;;4.00;3.13;;;29.30;99.90;;;;;;7392345;19;20021;-80
2022/08/24 12:04:55;;;;;;;3.92;2.53;;;29.20;99.90;;;;;;7394685;19;20018;-80
2022/08/24 12:07:52;;;;;;;3.45;2.53;;;29.10;99.90;;;;;;7394327;19;20022;-80
2022/08/24 12:10:41;;;;;;;4.80;3.05;;;29.10;99.60;;;;;;7391872;19;20010;-81
2022/08/24 12:13:36;;;;;;;3.85;3.25;;;29.20;99.90;;;;;;7393753;19;20386;-79
2022/08/24 12:16:06;;;;;;;4.03;2.30;;;29.30;99.20;;;;;;7391628;19;20021;-80
2022/08/24 12:19:06;;;;;;;4.72;3.10;;;29.40;99.70;;;;;;7393603;19;20010;-80
2022/08/24 12:21:37;;;;;;;4.38;2.75;;;29.30;99.80;;;;;;7394508;19;20017;-80
2022/08/24 12:24:08;;;;;;;4.10;2.60;;;29.50;99.50;;;;;;7393643;19;20015;-81
2022/08/24 12:26:41;;;;;;;4.07;1.92;;;29.50;99.30;;;;;;7393622;19;20010;-80
2022/08/24 12:29:20;;;;;;;2.70;2.00;;;29.40;99.80;;;;;;7389934;19;20007;-80
2022/08/24 12:32:24;;;;;;;3.92;2.33;;;29.20;99.90;;;;;;7393304;19;20011;-80
2022/08/24 12:35:05;;;;;;;4.68;3.00;;;29.00;99.90;;;;;;7390994;19;20023;-80
2022/08/24 12:37:48;;;;;;;3.90;2.13;;;29.00;99.50;;;;;;7392382;19;20068;-81
2022/08/24 12:40:30;;;;;;;4.07;2.38;;;29.00;99.90;;;;;;7393263;19;20015;-80
2022/08/24 12:43:01;;;;;;;4.28;3.17;;;29.10;99.90;;;;;;7391904;19;20002;-80
2022/08/24 12:45:29;;;;;;;4.68;3.17;;;29.30;99.90;;;;;;7393199;19;20007;-81
2022/08/24 12:48:20;;;;;;;5.80;3.70;;;29.40;99.30;;;;;;7391593;19;20014;-80
2022/08/24 12:51:36;;;;;;;5.05;3.78;;;29.60;99.40;;;;;;7392233;19;20034;-79
2022/08/24 12:54:23;;;;;;;7.10;3.25;;;29.80;99.40;;;;;;7389451;19;20035;-81
2022/08/24 12:57:09;;;;;;;3.85;2.80;;;29.80;98.70;;;;;;7389220;19;20607;-79
2022/08/24 12:59:42;;;;;;;5.85;4.20;;;29.80;98.90;;;;;;7391880;19;20006;-80
2022/08/24 13:02:14;;;;;;;5.80;2.92;;;29.80;98.40;;;;;;7392194;19;20085;-80
2022/08/24 13:04:49;;;;;;;3.40;2.20;;;29.90;98.80;;;;;;7392445;19;20337;-80
2022/08/24 13:07:18;;;;;;;2.22;1.88;;;29.80;98.80;;;;;;7392684;19;20027;-79
2022/08/24 13:09:59;;;;;;;3.72;2.30;;;29.70;99.10;;;;;;7392670;19;20316;-79
2022/08/24 13:12:43;;;;;;;4.22;1.80;;;29.80;99.70;;;;;;7392598;19;20007;-79
2022/08/24 13:15:42;;;;;;;2.72;1.70;;;29.80;99.00;;;;;;7392043;19;20010;-79